sensor_id;sensor_type;location;lat;lon;timestamp;pressure;altitude;pressure_sealevel;temperature;humidity
11878;BME280;5998;42.676;23.268;2023-02-14T00:01:15;96222.66;;;2.71;100.00
11878;BME280;5998;42.676;23.268;2023-02-14T00:03:43;96229.28;;;2.69;100.00
11878;BME280;5998;42.676;23.268;2023-02-14T00:06:11;96223.41;;;2.67;100.00
11878;BME280;5998;42.676;23.268;2023-02-14T00:08:38;96218.34;;;2.65;100.00
11878;BME280;5998;42.676;23.268;2023-02-14T00:11:09;96227.38;;;2.64;100.00
11878;BME280;5998;42.676;23.268;2023-02-14T00:13:36;96224.19;;;2.62;100.00
11878;BME280;5998;42.676;23.268;2023-02-14T00:16:02;96218.03;;;2.57;100.00
11878;BME280;5998;42.676;23.268;2023-02-14T00:18:28;96224.44;;;2.61;100.00
11878;BME280;5998;42.676;23.268;2023-02-14T00:21:10;96225.75;;;2.58;100.00
11878;BME280;5998;42.676;23.268;2023-02-14T00:23:37;96234.00;;;2.62;100.00
11878;BME280;5998;42.676;23.268;2023-02-14T00:26:04;96230.53;;;2.61;100.00
11878;BME280;5998;42.676;23.268;2023-02-14T00:28:30;96226.34;;;2.65;100.00
11878;BME280;5998;42.676;23.268;2023-02-14T00:30:59;96227.41;;;2.69;100.00
11878;BME280;5998;42.676;23.268;2023-02-14T00:33:26;96218.38;;;2.70;100.00
11878;BME280;5998;42.676;23.268;2023-02-14T00:35:53;96220.00;;;2.71;100.00
11878;BME280;5998;42.676;23.268;2023-02-14T00:38:21;96222.38;;;2.73;100.00
11878;BME280;5998;42.676;23.268;2023-02-14T00:40:47;96230.47;;;2.83;100.00
11878;BME280;5998;42.676;23.268;2023-02-14T00:43:14;96224.88;;;2.89;100.00
11878;BME280;5998;42.676;23.268;2023-02-14T00:45:41;96227.56;;;2.89;100.00
11878;BME280;5998;42.676;23.268;2023-02-14T00:48:07;96220.09;;;2.91;100.00
11878;BME280;5998;42.676;23.268;2023-02-14T00:50:34;96228.34;;;2.90;100.00
11878;BME280;5998;42.676;23.268;2023-02-14T00:53:01;96216.41;;;2.92;100.00
11878;BME280;5998;42.676;23.268;2023-02-14T00:55:29;96214.53;;;2.93;100.00
11878;BME280;5998;42.676;23.268;2023-02-14T00:57:55;96206.75;;;2.81;100.00
11878;BME280;5998;42.676;23.268;2023-02-14T01:00:22;96202.56;;;2.90;100.00
11878;BME280;5998;42.676;23.268;2023-02-14T01:02:49;96206.53;;;2.88;100.00
11878;BME280;5998;42.676;23.268;2023-02-14T01:05:16;96209.75;;;2.90;100.00
11878;BME280;5998;42.676;23.268;2023-02-14T01:07:43;96200.97;;;2.94;100.00
11878;BME280;5998;42.676;23.268;2023-02-14T01:10:10;96190.56;;;2.88;100.00
11878;BME280;5998;42.676;23.268;2023-02-14T01:12:38;96202.56;;;2.90;100.00
11878;BME280;5998;42.676;23.268;2023-02-14T01:15:05;96195.94;;;2.93;100.00
11878;BME280;5998;42.676;23.268;2023-02-14T01:17:32;96198.59;;;2.93;100.00
11878;BME280;5998;42.676;23.268;2023-02-14T01:19:59;96194.84;;;2.94;100.00
11878;BME280;5998;42.676;23.268;2023-02-14T01:22:25;96197.28;;;2.95;100.00
11878;BME280;5998;42.676;23.268;2023-02-14T01:24:52;96198.06;;;2.91;100.00
11878;BME280;5998;42.676;23.268;2023-02-14T01:27:19;96194.03;;;2.88;100.00
11878;BME280;5998;42.676;23.268;2023-02-14T01:29:47;96180.25;;;2.96;100.00
11878;BME280;5998;42.676;23.268;2023-02-14T01:32:13;96193.50;;;2.91;100.00
11878;BME280;5998;42.676;23.268;2023-02-14T01:34:40;96182.34;;;2.94;100.00
11878;BME280;5998;42.676;23.268;2023-02-14T01:37:07;96179.97;;;2.93;100.00
11878;BME280;5998;42.676;23.268;2023-02-14T01:39:33;96173.81;;;2.87;100.00
11878;BME280;5998;42.676;23.268;2023-02-14T01:42:00;96139.91;;;2.68;100.00
11878;BME280;5998;42.676;23.268;2023-02-14T01:44:54;96159.44;;;2.88;100.00
11878;BME280;5998;42.676;23.268;2023-02-14T01:47:22;96159.72;;;2.87;100.00
11878;BME280;5998;42.676;23.268;2023-02-14T01:49:52;96158.91;;;2.86;100.00
11878;BME280;5998;42.676;23.268;2023-02-14T01:52:22;96152.28;;;2.94;100.00
11878;BME280;5998;42.676;23.268;2023-02-14T01:54:52;96138.44;;;2.87;100.00
11878;BME280;5998;42.676;23.268;2023-02-14T01:57:23;96147.75;;;2.89;100.00
11878;BME280;5998;42.676;23.268;2023-02-14T01:59:56;96144.03;;;2.85;100.00
11878;BME280;5998;42.676;23.268;2023-02-14T02:02:44;96144.78;;;2.86;100.00
11878;BME280;5998;42.676;23.268;2023-02-14T02:05:13;96130.13;;;2.78;100.00
11878;BME280;5998;42.676;23.268;2023-02-14T02:07:40;96152.78;;;2.86;100.00
11878;BME280;5998;42.676;23.268;2023-02-14T02:10:08;96147.41;;;2.76;100.00
11878;BME280;5998;42.676;23.268;2023-02-14T02:12:36;96148.03;;;2.93;100.00
11878;BME280;5998;42.676;23.268;2023-02-14T02:15:06;96153.06;;;2.89;100.00
11878;BME280;5998;42.676;23.268;2023-02-14T02:17:42;96143.78;;;2.97;100.00
11878;BME280;5998;42.676;23.268;2023-02-14T02:20:51;96148.03;;;2.93;100.00
11878;BME280;5998;42.676;23.268;2023-02-14T02:23:49;96147.28;;;3.03;100.00
11878;BME280;5998;42.676;23.268;2023-02-14T02:26:49;96141.41;;;2.95;100.00
11878;BME280;5998;42.676;23.268;2023-02-14T02:33:03;96126.97;;;2.86;100.00
11878;BME280;5998;42.676;23.268;2023-02-14T02:35:47;96123.50;;;2.86;100.00
11878;BME280;5998;42.676;23.268;2023-02-14T02:38:36;96117.69;;;2.89;100.00
11878;BME280;5998;42.676;23.268;2023-02-14T02:41:14;96113.69;;;2.91;100.00
11878;BME280;5998;42.676;23.268;2023-02-14T02:43:48;96110.53;;;2.94;100.00
11878;BME280;5998;42.676;23.268;2023-02-14T02:46:23;96101.97;;;2.82;100.00
11878;BME280;5998;42.676;23.268;2023-02-14T02:49:13;96107.03;;;2.84;100.00
11878;BME280;5998;42.676;23.268;2023-02-14T02:52:08;96113.19;;;2.94;100.00
11878;BME280;5998;42.676;23.268;2023-02-14T02:54:59;96104.88;;;2.81;100.00
11878;BME280;5998;42.676;23.268;2023-02-14T02:57:32;96116.84;;;2.83;100.00
11878;BME280;5998;42.676;23.268;2023-02-14T03:00:02;96116.53;;;2.70;100.00
11878;BME280;5998;42.676;23.268;2023-02-14T03:02:31;96111.19;;;2.70;100.00
11878;BME280;5998;42.676;23.268;2023-02-14T03:05:01;96110.69;;;2.73;100.00
11878;BME280;5998;42.676;23.268;2023-02-14T03:07:32;96111.19;;;2.70;100.00
11878;BME280;5998;42.676;23.268;2023-02-14T03:10:07;96120.00;;;2.75;100.00
11878;BME280;5998;42.676;23.268;2023-02-14T03:15:51;96115.75;;;2.74;100.00
11878;BME280;5998;42.676;23.268;2023-02-14T03:18:31;96110.97;;;2.71;100.00
11878;BME280;5998;42.676;23.268;2023-02-14T03:21:07;96101.88;;;2.67;100.00
11878;BME280;5998;42.676;23.268;2023-02-14T03:23:38;96092.25;;;2.56;100.00
11878;BME280;5998;42.676;23.268;2023-02-14T03:26:13;96091.53;;;2.71;100.00
11878;BME280;5998;42.676;23.268;2023-02-14T03:28:46;96096.00;;;2.60;100.00
11878;BME280;5998;42.676;23.268;2023-02-14T03:31:19;96070.16;;;2.56;100.00
11878;BME280;5998;42.676;23.268;2023-02-14T03:33:55;96073.41;;;2.63;100.00
11878;BME280;5998;42.676;23.268;2023-02-14T03:36:28;96076.13;;;2.73;100.00
11878;BME280;5998;42.676;23.268;2023-02-14T03:39:02;96085.09;;;2.62;100.00
11878;BME280;5998;42.676;23.268;2023-02-14T03:41:36;96094.44;;;2.69;100.00
11878;BME280;5998;42.676;23.268;2023-02-14T03:44:08;96098.41;;;2.62;100.00
11878;BME280;5998;42.676;23.268;2023-02-14T03:46:39;96093.53;;;2.49;100.00
11878;BME280;5998;42.676;23.268;2023-02-14T03:49:14;96057.03;;;2.34;100.00
11878;BME280;5998;42.676;23.268;2023-02-14T03:51:44;96081.09;;;2.59;100.00
11878;BME280;5998;42.676;23.268;2023-02-14T03:54:15;96076.28;;;2.56;100.00
11878;BME280;5998;42.676;23.268;2023-02-14T03:56:47;96079.41;;;2.43;100.00
11878;BME280;5998;42.676;23.268;2023-02-14T03:59:18;96064.03;;;2.50;100.00
11878;BME280;5998;42.676;23.268;2023-02-14T04:01:49;96073.59;;;2.46;100.00
11878;BME280;5998;42.676;23.268;2023-02-14T04:04:20;96063.97;;;2.40;100.00
11878;BME280;5998;42.676;23.268;2023-02-14T04:06:49;96060.53;;;2.39;100.00
11878;BME280;5998;42.676;23.268;2023-02-14T04:09:17;96058.38;;;2.36;100.00
11878;BME280;5998;42.676;23.268;2023-02-14T04:11:44;96057.53;;;2.31;100.00
11878;BME280;5998;42.676;23.268;2023-02-14T04:14:14;96050.34;;;2.26;100.00
11878;BME280;5998;42.676;23.268;2023-02-14T04:16:41;96059.47;;;2.41;100.00
11878;BME280;5998;42.676;23.268;2023-02-14T04:19:22;96056.78;;;2.35;100.00
11878;BME280;5998;42.676;23.268;2023-02-14T04:21:49;96065.28;;;2.32;100.00
11878;BME280;5998;42.676;23.268;2023-02-14T04:24:17;96062.94;;;2.41;100.00
11878;BME280;5998;42.676;23.268;2023-02-14T04:26:45;96053.66;;;2.44;100.00
11878;BME280;5998;42.676;23.268;2023-02-14T04:29:35;96065.59;;;2.41;100.00
11878;BME280;5998;42.676;23.268;2023-02-14T04:32:03;96066.41;;;2.42;100.00
11878;BME280;5998;42.676;23.268;2023-02-14T04:34:30;96067.78;;;2.54;100.00
11878;BME280;5998;42.676;23.268;2023-02-14T04:36:56;96060.31;;;2.51;100.00
11878;BME280;5998;42.676;23.268;2023-02-14T04:39:25;96064.84;;;2.56;100.00
11878;BME280;5998;42.676;23.268;2023-02-14T04:41:51;96067.50;;;2.51;100.00
11878;BME280;5998;42.676;23.268;2023-02-14T04:44:18;96057.69;;;2.56;100.00
11878;BME280;5998;42.676;23.268;2023-02-14T04:46:45;96047.06;;;2.56;100.00
11878;BME280;5998;42.676;23.268;2023-02-14T04:49:12;96038.03;;;2.57;100.00
11878;BME280;5998;42.676;23.268;2023-02-14T04:51:38;96035.38;;;2.57;100.00
11878;BME280;5998;42.676;23.268;2023-02-14T04:54:05;96009.75;;;2.36;100.00
11878;BME280;5998;42.676;23.268;2023-02-14T04:56:34;96034.50;;;2.42;100.00
11878;BME280;5998;42.676;23.268;2023-02-14T04:59:00;96033.44;;;2.43;100.00
11878;BME280;5998;42.676;23.268;2023-02-14T05:01:27;96036.94;;;2.53;100.00
11878;BME280;5998;42.676;23.268;2023-02-14T05:03:54;96033.22;;;2.49;100.00
11878;BME280;5998;42.676;23.268;2023-02-14T05:06:21;96039.28;;;2.45;100.00
11878;BME280;5998;42.676;23.268;2023-02-14T05:08:48;96042.75;;;2.50;100.00
11878;BME280;5998;42.676;23.268;2023-02-14T05:11:14;96050.19;;;2.48;100.00
11878;BME280;5998;42.676;23.268;2023-02-14T05:13:42;96039.59;;;2.53;100.00
11878;BME280;5998;42.676;23.268;2023-02-14T05:16:09;96036.09;;;2.48;100.00
11878;BME280;5998;42.676;23.268;2023-02-14T05:18:36;96045.97;;;2.52;100.00
11878;BME280;5998;42.676;23.268;2023-02-14T05:21:02;96041.72;;;2.56;100.00
11878;BME280;5998;42.676;23.268;2023-02-14T05:23:29;96037.22;;;2.57;100.00
11878;BME280;5998;42.676;23.268;2023-02-14T05:25:56;96035.34;;;2.52;100.00
11878;BME280;5998;42.676;23.268;2023-02-14T05:28:23;96039.88;;;2.52;100.00
11878;BME280;5998;42.676;23.268;2023-02-14T05:30:51;96038.84;;;2.58;100.00
11878;BME280;5998;42.676;23.268;2023-02-14T05:33:18;96043.06;;;2.54;100.00
11878;BME280;5998;42.676;23.268;2023-02-14T05:35:44;96038.00;;;2.52;100.00
11878;BME280;5998;42.676;23.268;2023-02-14T05:38:11;96032.41;;;2.54;100.00
11878;BME280;5998;42.676;23.268;2023-02-14T05:40:38;96023.91;;;2.47;100.00
11878;BME280;5998;42.676;23.268;2023-02-14T05:43:06;96029.47;;;2.50;100.00
11878;BME280;5998;42.676;23.268;2023-02-14T05:45:32;96020.44;;;2.46;100.00
11878;BME280;5998;42.676;23.268;2023-02-14T05:48:01;95994.88;;;2.40;100.00
11878;BME280;5998;42.676;23.268;2023-02-14T05:50:28;96009.00;;;2.51;100.00
11878;BME280;5998;42.676;23.268;2023-02-14T05:52:55;96020.53;;;2.66;100.00
11878;BME280;5998;42.676;23.268;2023-02-14T05:55:21;95991.72;;;2.48;100.00
11878;BME280;5998;42.676;23.268;2023-02-14T05:57:49;96025.56;;;2.63;100.00
11878;BME280;5998;42.676;23.268;2023-02-14T06:00:16;96033.25;;;2.64;100.00
11878;BME280;5998;42.676;23.268;2023-02-14T06:02:43;96008.50;;;2.59;100.00
11878;BME280;5998;42.676;23.268;2023-02-14T06:05:11;96024.00;;;2.72;100.00
11878;BME280;5998;42.676;23.268;2023-02-14T06:07:39;96032.81;;;2.77;100.00
11878;BME280;5998;42.676;23.268;2023-02-14T06:10:08;96029.59;;;2.80;100.00
11878;BME280;5998;42.676;23.268;2023-02-14T06:12:35;96029.88;;;2.79;100.00
11878;BME280;5998;42.676;23.268;2023-02-14T06:15:02;96038.16;;;2.87;100.00
11878;BME280;5998;42.676;23.268;2023-02-14T06:17:28;96041.84;;;2.86;100.00
11878;BME280;5998;42.676;23.268;2023-02-14T06:19:55;96040.28;;;2.85;100.00
11878;BME280;5998;42.676;23.268;2023-02-14T06:22:23;96039.72;;;2.88;100.00
11878;BME280;5998;42.676;23.268;2023-02-14T06:24:50;96038.69;;;2.94;100.00
11878;BME280;5998;42.676;23.268;2023-02-14T06:27:16;96036.03;;;2.99;100.00
11878;BME280;5998;42.676;23.268;2023-02-14T06:29:43;96042.16;;;2.95;100.00
11878;BME280;5998;42.676;23.268;2023-02-14T06:32:10;96042.72;;;3.02;100.00
11878;BME280;5998;42.676;23.268;2023-02-14T06:34:36;96040.88;;;3.13;100.00
11878;BME280;5998;42.676;23.268;2023-02-14T06:37:04;96030.25;;;3.18;100.00
11878;BME280;5998;42.676;23.268;2023-02-14T06:39:32;96032.38;;;3.26;100.00
11878;BME280;5998;42.676;23.268;2023-02-14T06:41:58;96032.91;;;3.23;100.00
11878;BME280;5998;42.676;23.268;2023-02-14T06:44:25;96047.28;;;3.22;100.00
11878;BME280;5998;42.676;23.268;2023-02-14T06:46:52;96039.84;;;3.29;100.00
11878;BME280;5998;42.676;23.268;2023-02-14T06:49:18;96034.00;;;3.32;100.00
11878;BME280;5998;42.676;23.268;2023-02-14T06:51:45;96022.03;;;3.39;100.00
11878;BME280;5998;42.676;23.268;2023-02-14T06:54:12;96016.69;;;3.39;100.00
11878;BME280;5998;42.676;23.268;2023-02-14T06:56:40;96010.28;;;3.35;100.00
11878;BME280;5998;42.676;23.268;2023-02-14T06:59:07;96019.13;;;3.46;100.00
11878;BME280;5998;42.676;23.268;2023-02-14T07:01:34;96018.59;;;3.54;100.00
11878;BME280;5998;42.676;23.268;2023-02-14T07:04:01;96019.13;;;3.51;100.00
11878;BME280;5998;42.676;23.268;2023-02-14T07:06:28;96015.09;;;3.43;100.00
11878;BME280;5998;42.676;23.268;2023-02-14T07:08:54;96011.38;;;3.44;100.00
11878;BME280;5998;42.676;23.268;2023-02-14T07:11:21;96005.53;;;3.52;100.00
11878;BME280;5998;42.676;23.268;2023-02-14T07:13:49;96010.56;;;3.44;100.00
11878;BME280;5998;42.676;23.268;2023-02-14T07:16:16;96006.34;;;3.43;100.00
11878;BME280;5998;42.676;23.268;2023-02-14T07:18:42;96014.56;;;3.46;100.00
11878;BME280;5998;42.676;23.268;2023-02-14T07:21:09;96020.97;;;3.40;100.00
11878;BME280;5998;42.676;23.268;2023-02-14T07:23:36;96020.97;;;3.45;100.00
11878;BME280;5998;42.676;23.268;2023-02-14T07:26:03;96022.03;;;3.39;100.00
11878;BME280;5998;42.676;23.268;2023-02-14T07:28:30;96026.56;;;3.39;100.00
11878;BME280;5998;42.676;23.268;2023-02-14T07:30:59;96028.16;;;3.55;100.00
11878;BME280;5998;42.676;23.268;2023-02-14T07:33:26;96023.09;;;3.53;100.00
11878;BME280;5998;42.676;23.268;2023-02-14T07:35:53;96025.78;;;3.53;100.00
11878;BME280;5998;42.676;23.268;2023-02-14T07:38:20;96020.69;;;3.47;100.00
11878;BME280;5998;42.676;23.268;2023-02-14T07:40:47;96025.25;;;3.51;100.00
11878;BME280;5998;42.676;23.268;2023-02-14T07:43:14;96020.16;;;3.40;100.00
11878;BME280;5998;42.676;23.268;2023-02-14T07:45:41;96029.19;;;3.24;100.00
11878;BME280;5998;42.676;23.268;2023-02-14T07:48:09;96032.63;;;3.19;100.00
11878;BME280;5998;42.676;23.268;2023-02-14T07:50:36;96041.66;;;3.03;100.00
11878;BME280;5998;42.676;23.268;2023-02-14T07:53:02;96040.06;;;3.02;100.00
11878;BME280;5998;42.676;23.268;2023-02-14T07:55:29;96050.41;;;2.93;100.00
11878;BME280;5998;42.676;23.268;2023-02-14T07:57:56;96046.94;;;2.93;100.00
11878;BME280;5998;42.676;23.268;2023-02-14T08:00:23;96048.00;;;2.97;100.00
11878;BME280;5998;42.676;23.268;2023-02-14T08:02:49;96045.09;;;2.98;100.00
11878;BME280;5998;42.676;23.268;2023-02-14T08:05:18;96042.97;;;3.06;100.00
11878;BME280;5998;42.676;23.268;2023-02-14T08:07:44;96010.44;;;2.78;100.00
11878;BME280;5998;42.676;23.268;2023-02-14T08:10:11;96051.53;;;3.08;100.00
11878;BME280;5998;42.676;23.268;2023-02-14T08:12:38;96054.44;;;3.11;100.00
11878;BME280;5998;42.676;23.268;2023-02-14T08:15:22;96044.28;;;2.98;100.00
11878;BME280;5998;42.676;23.268;2023-02-14T08:18:06;96041.88;;;2.91;100.00
11878;BME280;5998;42.676;23.268;2023-02-14T08:20:34;96075.94;;;2.99;100.00
11878;BME280;5998;42.676;23.268;2023-02-14T08:23:01;96049.03;;;2.86;100.00
11878;BME280;5998;42.676;23.268;2023-02-14T08:25:28;96074.38;;;2.98;100.00
11878;BME280;5998;42.676;23.268;2023-02-14T08:27:55;96077.03;;;2.98;100.00
11878;BME280;5998;42.676;23.268;2023-02-14T08:30:22;96049.53;;;2.73;100.00
11878;BME280;5998;42.676;23.268;2023-02-14T08:32:50;96067.19;;;2.99;100.00
11878;BME280;5998;42.676;23.268;2023-02-14T08:35:17;96072.53;;;3.09;100.00
11878;BME280;5998;42.676;23.268;2023-02-14T08:37:45;96059.00;;;3.21;100.00
11878;BME280;5998;42.676;23.268;2023-02-14T08:40:12;96060.06;;;3.25;100.00
11878;BME280;5998;42.676;23.268;2023-02-14T08:42:39;96059.53;;;3.23;100.00
11878;BME280;5998;42.676;23.268;2023-02-14T08:45:06;96070.91;;;3.03;100.00
11878;BME280;5998;42.676;23.268;2023-02-14T08:47:33;96079.38;;;2.90;100.00
11878;BME280;5998;42.676;23.268;2023-02-14T08:50:03;96069.78;;;2.84;100.00
11878;BME280;5998;42.676;23.268;2023-02-14T08:52:30;96048.16;;;2.65;100.00
11878;BME280;5998;42.676;23.268;2023-02-14T08:54:58;96075.63;;;2.81;100.00
11878;BME280;5998;42.676;23.268;2023-02-14T08:57:26;96077.75;;;2.79;100.00
11878;BME280;5998;42.676;23.268;2023-02-14T08:59:53;96077.75;;;2.79;100.00
11878;BME280;5998;42.676;23.268;2023-02-14T09:02:19;96082.78;;;2.80;100.00
11878;BME280;5998;42.676;23.268;2023-02-14T09:04:46;96084.88;;;2.68;100.00
11878;BME280;5998;42.676;23.268;2023-02-14T09:07:13;96068.41;;;2.71;100.00
11878;BME280;5998;42.676;23.268;2023-02-14T09:09:40;96069.56;;;2.90;100.00
11878;BME280;5998;42.676;23.268;2023-02-14T10:17:29;96001.81;;;3.64;100.00
11878;BME280;5998;42.676;23.268;2023-02-14T10:20:05;96006.59;;;3.56;100.00
11878;BME280;5998;42.676;23.268;2023-02-14T10:22:44;96016.44;;;3.36;100.00
11878;BME280;5998;42.676;23.268;2023-02-14T10:25:17;96014.28;;;3.38;100.00
11878;BME280;5998;42.676;23.268;2023-02-14T10:27:46;96011.09;;;3.36;100.00
11878;BME280;5998;42.676;23.268;2023-02-14T10:30:16;96005.22;;;3.19;100.00
11878;BME280;5998;42.676;23.268;2023-02-14T10:32:47;96012.94;;;3.20;100.00
11878;BME280;5998;42.676;23.268;2023-02-14T10:35:21;95956.19;;;2.74;100.00
11878;BME280;5998;42.676;23.268;2023-02-14T10:37:57;96012.13;;;3.10;100.00
11878;BME280;5998;42.676;23.268;2023-02-14T10:40:42;96012.91;;;3.05;100.00
11878;BME280;5998;42.676;23.268;2023-02-14T10:43:20;96007.88;;;3.04;100.00
11878;BME280;5998;42.676;23.268;2023-02-14T10:45:55;96005.72;;;2.90;100.00
11878;BME280;5998;42.676;23.268;2023-02-14T10:48:44;96008.91;;;2.92;100.00
11878;BME280;5998;42.676;23.268;2023-02-14T10:51:15;96015.31;;;3.07;100.00
11878;BME280;5998;42.676;23.268;2023-02-14T10:54:08;96015.56;;;3.05;100.00
11878;BME280;5998;42.676;23.268;2023-02-14T10:56:41;96024.34;;;2.95;100.00
11878;BME280;5998;42.676;23.268;2023-02-14T10:59:15;96002.00;;;2.96;100.00
11878;BME280;5998;42.676;23.268;2023-02-14T11:01:46;95993.75;;;3.08;100.00
11878;BME280;5998;42.676;23.268;2023-02-14T11:04:17;95991.59;;;2.95;100.00
11878;BME280;5998;42.676;23.268;2023-02-14T11:06:45;95996.13;;;2.99;100.00
11878;BME280;5998;42.676;23.268;2023-02-14T11:09:14;96005.47;;;3.07;100.00
11878;BME280;5998;42.676;23.268;2023-02-14T11:11:44;96003.34;;;3.19;100.00
11878;BME280;5998;42.676;23.268;2023-02-14T11:14:22;95964.47;;;3.03;100.00
11878;BME280;5998;42.676;23.268;2023-02-14T11:16:50;95979.41;;;3.14;100.00
11878;BME280;5998;42.676;23.268;2023-02-14T11:19:23;96000.44;;;3.26;100.00
11878;BME280;5998;42.676;23.268;2023-02-14T11:21:51;95992.19;;;3.27;100.00
11878;BME280;5998;42.676;23.268;2023-02-14T11:24:25;95990.34;;;3.28;100.00
11878;BME280;5998;42.676;23.268;2023-02-14T11:26:55;95986.88;;;3.22;100.00
11878;BME280;5998;42.676;23.268;2023-02-14T11:29:29;95984.47;;;3.26;100.00
11878;BME280;5998;42.676;23.268;2023-02-14T11:32:05;95980.75;;;3.22;100.00
11878;BME280;5998;42.676;23.268;2023-02-14T11:34:35;95968.50;;;3.21;100.00
11878;BME280;5998;42.676;23.268;2023-02-14T11:37:16;95963.72;;;3.23;100.00
11878;BME280;5998;42.676;23.268;2023-02-14T11:39:43;95966.38;;;3.33;100.00
11878;BME280;5998;42.676;23.268;2023-02-14T11:42:11;95966.94;;;3.40;100.00
11878;BME280;5998;42.676;23.268;2023-02-14T11:44:53;95952.28;;;3.52;100.00
11878;BME280;5998;42.676;23.268;2023-02-14T11:47:26;95979.41;;;3.54;100.00
11878;BME280;5998;42.676;23.268;2023-02-14T11:50:20;95964.78;;;3.62;100.00
11878;BME280;5998;42.676;23.268;2023-02-14T11:52:56;95928.56;;;3.61;100.00
11878;BME280;5998;42.676;23.268;2023-02-14T11:55:34;95947.97;;;3.77;100.00
11878;BME280;5998;42.676;23.268;2023-02-14T11:58:09;95945.06;;;3.78;100.00
11878;BME280;5998;42.676;23.268;2023-02-14T12:01:19;95941.84;;;3.71;100.00
11878;BME280;5998;42.676;23.268;2023-02-14T12:03:47;95924.03;;;3.46;100.00
11878;BME280;5998;42.676;23.268;2023-02-14T12:06:23;95941.88;;;3.61;100.00
11878;BME280;5998;42.676;23.268;2023-02-14T12:08:51;95958.69;;;3.51;100.00
11878;BME280;5998;42.676;23.268;2023-02-14T12:11:36;95925.91;;;3.61;100.00
11878;BME280;5998;42.676;23.268;2023-02-14T12:14:03;95930.44;;;3.61;100.00
11878;BME280;5998;42.676;23.268;2023-02-14T12:16:37;95893.97;;;3.46;100.00
11878;BME280;5998;42.676;23.268;2023-02-14T12:19:16;95945.06;;;3.73;100.00
11878;BME280;5998;42.676;23.268;2023-02-14T12:21:48;95936.28;;;3.63;100.00
11878;BME280;5998;42.676;23.268;2023-02-14T12:24:24;95929.09;;;3.63;100.00
11878;BME280;5998;42.676;23.268;2023-02-14T12:27:02;95907.28;;;3.46;100.00
11878;BME280;5998;42.676;23.268;2023-02-14T12:29:35;95923.50;;;3.65;100.00
11878;BME280;5998;42.676;23.268;2023-02-14T12:32:20;95914.72;;;3.59;100.00
11878;BME280;5998;42.676;23.268;2023-02-14T12:34:47;95888.13;;;3.54;100.00
11878;BME280;5998;42.676;23.268;2023-02-14T12:37:21;95907.22;;;3.71;100.00
11878;BME280;5998;42.676;23.268;2023-02-14T12:40:02;95906.16;;;3.82;100.00
11878;BME280;5998;42.676;23.268;2023-02-14T12:42:43;95912.78;;;3.85;100.00
11878;BME280;5998;42.676;23.268;2023-02-14T12:45:17;95912.00;;;3.89;100.00
11878;BME280;5998;42.676;23.268;2023-02-14T12:47:53;95914.66;;;3.94;100.00
11878;BME280;5998;42.676;23.268;2023-02-14T12:50:33;95911.38;;;4.12;100.00
11878;BME280;5998;42.676;23.268;2023-02-14T12:53:29;95892.03;;;3.87;100.00
11878;BME280;5998;42.676;23.268;2023-02-14T12:56:05;95903.50;;;3.87;100.00
11878;BME280;5998;42.676;23.268;2023-02-14T12:58:44;95908.81;;;3.82;100.00
11878;BME280;5998;42.676;23.268;2023-02-14T13:01:33;95918.94;;;3.85;100.00
11878;BME280;5998;42.676;23.268;2023-02-14T13:07:28;95911.22;;;3.84;100.00
11878;BME280;5998;42.676;23.268;2023-02-14T13:10:13;95907.75;;;3.83;100.00
11878;BME280;5998;42.676;23.268;2023-02-14T13:12:47;95908.25;;;3.90;100.00
11878;BME280;5998;42.676;23.268;2023-02-14T13:15:21;95898.16;;;3.87;100.00
11878;BME280;5998;42.676;23.268;2023-02-14T13:17:53;95894.94;;;3.85;100.00
11878;BME280;5998;42.676;23.268;2023-02-14T13:20:29;95899.41;;;4.10;100.00
11878;BME280;5998;42.676;23.268;2023-02-14T13:23:03;95891.94;;;4.17;100.00
11878;BME280;5998;42.676;23.268;2023-02-14T13:25:35;95894.84;;;4.15;100.00
11878;BME280;5998;42.676;23.268;2023-02-14T13:28:10;95895.97;;;4.04;100.00
11878;BME280;5998;42.676;23.268;2023-02-14T13:30:38;95894.38;;;3.98;100.00
11878;BME280;5998;42.676;23.268;2023-02-14T13:35:53;95841.72;;;3.70;100.00
11878;BME280;5998;42.676;23.268;2023-02-14T13:38:21;95886.38;;;4.08;100.00
11878;BME280;5998;42.676;23.268;2023-02-14T13:40:51;95885.59;;;4.03;100.00
11878;BME280;5998;42.676;23.268;2023-02-14T13:43:46;95880.50;;;4.11;100.00
11878;BME280;5998;42.676;23.268;2023-02-14T13:46:14;95880.22;;;4.13;100.00
11878;BME280;5998;42.676;23.268;2023-02-14T13:48:42;95888.50;;;4.06;100.00
11878;BME280;5998;42.676;23.268;2023-02-14T13:51:20;95872.78;;;4.05;100.00
11878;BME280;5998;42.676;23.268;2023-02-14T13:53:48;95879.94;;;4.09;100.00
11878;BME280;5998;42.676;23.268;2023-02-14T13:56:33;95888.19;;;4.18;100.00
11878;BME280;5998;42.676;23.268;2023-02-14T13:59:03;95882.41;;;4.01;100.00
11878;BME280;5998;42.676;23.268;2023-02-14T14:01:38;95887.94;;;4.14;100.00
11878;BME280;5998;42.676;23.268;2023-02-14T14:04:32;95886.84;;;4.15;100.00
11878;BME280;5998;42.676;23.268;2023-02-14T14:07:18;95897.28;;;4.12;100.00
11878;BME280;5998;42.676;23.268;2023-02-14T14:10:00;95891.66;;;4.18;100.00
11878;BME280;5998;42.676;23.268;2023-02-14T14:12:44;95901.16;;;4.35;100.00
11878;BME280;5998;42.676;23.268;2023-02-14T14:15:14;95898.28;;;4.21;100.00
11878;BME280;5998;42.676;23.268;2023-02-14T14:17:43;95902.78;;;4.36;100.00
11878;BME280;5998;42.676;23.268;2023-02-14T14:20:45;95898.25;;;4.36;100.00
11878;BME280;5998;42.676;23.268;2023-02-14T14:23:27;95892.41;;;4.24;100.00
11878;BME280;5998;42.676;23.268;2023-02-14T14:25:55;95889.50;;;4.26;100.00
11878;BME280;5998;42.676;23.268;2023-02-14T14:28:25;95894.78;;;4.36;100.00
11878;BME280;5998;42.676;23.268;2023-02-14T14:30:52;95896.63;;;4.40;100.00
11878;BME280;5998;42.676;23.268;2023-02-14T14:33:27;95892.94;;;4.31;100.00
11878;BME280;5998;42.676;23.268;2023-02-14T14:35:56;95884.94;;;4.26;100.00
11878;BME280;5998;42.676;23.268;2023-02-14T14:38:24;95884.69;;;4.28;100.00
11878;BME280;5998;42.676;23.268;2023-02-14T14:40:51;95872.78;;;4.05;100.00